sensor_id;sensor_type;location;lat;lon;timestamp;temperature;humidity
52867;DHT22;38739;53.324;6.862;2022-09-28T00:01:04;7.40;99.90
52867;DHT22;38739;53.324;6.862;2022-09-28T00:03:30;7.40;99.90
52867;DHT22;38739;53.324;6.862;2022-09-28T00:06:04;7.40;99.90
52867;DHT22;38739;53.324;6.862;2022-09-28T00:08:31;7.30;99.90
52867;DHT22;38739;53.324;6.862;2022-09-28T00:10:57;7.30;99.90
52867;DHT22;38739;53.324;6.862;2022-09-28T00:13:23;7.30;99.90
52867;DHT22;38739;53.324;6.862;2022-09-28T00:16:06;7.30;99.90
52867;DHT22;38739;53.324;6.862;2022-09-28T00:18:33;7.20;99.90
52867;DHT22;38739;53.324;6.862;2022-09-28T00:21:09;7.20;99.90
52867;DHT22;38739;53.324;6.862;2022-09-28T00:23:35;7.10;99.90
52867;DHT22;38739;53.324;6.862;2022-09-28T00:26:28;7.10;99.90
52867;DHT22;38739;53.324;6.862;2022-09-28T00:28:56;7.00;99.90
52867;DHT22;38739;53.324;6.862;2022-09-28T00:31:30;7.00;99.90
52867;DHT22;38739;53.324;6.862;2022-09-28T00:33:58;7.00;99.90
52867;DHT22;38739;53.324;6.862;2022-09-28T00:36:26;6.90;99.90
52867;DHT22;38739;53.324;6.862;2022-09-28T00:38:56;6.90;99.90
52867;DHT22;38739;53.324;6.862;2022-09-28T00:41:24;6.80;99.90
52867;DHT22;38739;53.324;6.862;2022-09-28T00:43:50;6.80;99.90
52867;DHT22;38739;53.324;6.862;2022-09-28T00:46:36;6.70;99.90
52867;DHT22;38739;53.324;6.862;2022-09-28T00:49:05;6.70;99.90
52867;DHT22;38739;53.324;6.862;2022-09-28T00:51:35;6.60;99.90
52867;DHT22;38739;53.324;6.862;2022-09-28T00:54:04;6.60;99.90
52867;DHT22;38739;53.324;6.862;2022-09-28T00:56:32;6.60;99.90
52867;DHT22;38739;53.324;6.862;2022-09-28T00:58:59;6.60;99.90
52867;DHT22;38739;53.324;6.862;2022-09-28T01:01:27;6.50;99.90
52867;DHT22;38739;53.324;6.862;2022-09-28T01:03:52;6.50;99.90
52867;DHT22;38739;53.324;6.862;2022-09-28T01:06:24;6.60;99.90
52867;DHT22;38739;53.324;6.862;2022-09-28T01:08:54;6.50;99.90
52867;DHT22;38739;53.324;6.862;2022-09-28T01:11:23;6.50;99.90
52867;DHT22;38739;53.324;6.862;2022-09-28T01:13:51;6.40;99.90
52867;DHT22;38739;53.324;6.862;2022-09-28T01:24:45;6.30;99.90
52867;DHT22;38739;53.324;6.862;2022-09-28T01:30:14;6.30;99.90
52867;DHT22;38739;53.324;6.862;2022-09-28T01:32:54;6.20;99.90
52867;DHT22;38739;53.324;6.862;2022-09-28T01:37:53;6.20;99.90
52867;DHT22;38739;53.324;6.862;2022-09-28T01:40:22;6.20;99.90
52867;DHT22;38739;53.324;6.862;2022-09-28T01:42:58;6.20;99.90
52867;DHT22;38739;53.324;6.862;2022-09-28T01:45:29;6.10;99.90
52867;DHT22;38739;53.324;6.862;2022-09-28T01:48:00;6.10;99.90
52867;DHT22;38739;53.324;6.862;2022-09-28T01:50:28;6.10;99.90
52867;DHT22;38739;53.324;6.862;2022-09-28T01:53:03;6.10;99.90
52867;DHT22;38739;53.324;6.862;2022-09-28T01:55:41;6.10;99.90
52867;DHT22;38739;53.324;6.862;2022-09-28T01:58:23;6.00;99.90
52867;DHT22;38739;53.324;6.862;2022-09-28T02:00:59;6.00;99.90
52867;DHT22;38739;53.324;6.862;2022-09-28T02:04:21;6.00;99.90
52867;DHT22;38739;53.324;6.862;2022-09-28T02:06:36;6.00;99.90
52867;DHT22;38739;53.324;6.862;2022-09-28T02:09:11;6.00;99.90
52867;DHT22;38739;53.324;6.862;2022-09-28T02:11:44;6.00;99.90
52867;DHT22;38739;53.324;6.862;2022-09-28T02:14:14;6.00;99.90
52867;DHT22;38739;53.324;6.862;2022-09-28T02:16:43;5.90;99.90
52867;DHT22;38739;53.324;6.862;2022-09-28T02:19:23;5.90;99.90
52867;DHT22;38739;53.324;6.862;2022-09-28T02:21:55;5.90;99.90
52867;DHT22;38739;53.324;6.862;2022-09-28T02:24:38;5.80;99.90
52867;DHT22;38739;53.324;6.862;2022-09-28T02:30:05;5.70;99.90
52867;DHT22;38739;53.324;6.862;2022-09-28T02:32:33;5.70;99.90
52867;DHT22;38739;53.324;6.862;2022-09-28T02:34:59;5.60;99.90
52867;DHT22;38739;53.324;6.862;2022-09-28T02:37:26;5.60;99.90
52867;DHT22;38739;53.324;6.862;2022-09-28T02:39:52;5.60;99.90
52867;DHT22;38739;53.324;6.862;2022-09-28T02:42:26;5.60;99.90
52867;DHT22;38739;53.324;6.862;2022-09-28T02:45:21;5.50;99.90
52867;DHT22;38739;53.324;6.862;2022-09-28T02:48:04;5.50;99.90
52867;DHT22;38739;53.324;6.862;2022-09-28T02:51:06;5.50;99.90
52867;DHT22;38739;53.324;6.862;2022-09-28T03:02:07;5.50;99.90
52867;DHT22;38739;53.324;6.862;2022-09-28T03:12:35;5.60;99.90
52867;DHT22;38739;53.324;6.862;2022-09-28T03:17:35;5.60;99.90
52867;DHT22;38739;53.324;6.862;2022-09-28T03:20:02;5.60;99.90
52867;DHT22;38739;53.324;6.862;2022-09-28T03:22:28;5.70;99.90
52867;DHT22;38739;53.324;6.862;2022-09-28T03:24:53;5.70;99.90
52867;DHT22;38739;53.324;6.862;2022-09-28T03:27:19;5.80;99.90
52867;DHT22;38739;53.324;6.862;2022-09-28T03:29:45;5.80;99.90
52867;DHT22;38739;53.324;6.862;2022-09-28T03:32:11;5.90;99.90
52867;DHT22;38739;53.324;6.862;2022-09-28T03:34:36;5.90;99.90
52867;DHT22;38739;53.324;6.862;2022-09-28T03:37:02;5.90;99.90
52867;DHT22;38739;53.324;6.862;2022-09-28T03:39:28;5.90;99.90
52867;DHT22;38739;53.324;6.862;2022-09-28T03:41:53;5.90;99.90
52867;DHT22;38739;53.324;6.862;2022-09-28T03:44:19;5.90;99.90
52867;DHT22;38739;53.324;6.862;2022-09-28T03:46:45;6.00;99.90
52867;DHT22;38739;53.324;6.862;2022-09-28T03:49:11;6.00;99.90
52867;DHT22;38739;53.324;6.862;2022-09-28T03:51:37;6.00;99.90
52867;DHT22;38739;53.324;6.862;2022-09-28T03:54:03;6.00;99.90
52867;DHT22;38739;53.324;6.862;2022-09-28T03:56:28;6.00;99.90
52867;DHT22;38739;53.324;6.862;2022-09-28T03:58:54;6.00;99.90
52867;DHT22;38739;53.324;6.862;2022-09-28T04:01:20;6.00;99.90
52867;DHT22;38739;53.324;6.862;2022-09-28T04:03:46;6.00;99.90
52867;DHT22;38739;53.324;6.862;2022-09-28T04:06:13;6.00;99.90
52867;DHT22;38739;53.324;6.862;2022-09-28T04:08:39;6.00;99.90
52867;DHT22;38739;53.324;6.862;2022-09-28T04:11:05;6.00;99.90
52867;DHT22;38739;53.324;6.862;2022-09-28T04:13:31;6.00;99.90
52867;DHT22;38739;53.324;6.862;2022-09-28T04:15:59;6.00;99.90
52867;DHT22;38739;53.324;6.862;2022-09-28T04:18:25;6.10;99.90
52867;DHT22;38739;53.324;6.862;2022-09-28T04:21:01;6.10;99.90
52867;DHT22;38739;53.324;6.862;2022-09-28T04:23:28;6.10;99.90
52867;DHT22;38739;53.324;6.862;2022-09-28T04:25:54;6.10;99.90
52867;DHT22;38739;53.324;6.862;2022-09-28T04:28:19;6.10;99.90
52867;DHT22;38739;53.324;6.862;2022-09-28T04:31:11;6.10;99.90
52867;DHT22;38739;53.324;6.862;2022-09-28T04:33:37;6.10;99.90
52867;DHT22;38739;53.324;6.862;2022-09-28T04:36:03;6.10;99.90
52867;DHT22;38739;53.324;6.862;2022-09-28T04:38:29;6.10;99.90
52867;DHT22;38739;53.324;6.862;2022-09-28T04:40:54;6.10;99.90
52867;DHT22;38739;53.324;6.862;2022-09-28T04:43:20;6.10;99.90
52867;DHT22;38739;53.324;6.862;2022-09-28T04:45:46;6.10;99.90
52867;DHT22;38739;53.324;6.862;2022-09-28T04:48:11;6.10;99.90
52867;DHT22;38739;53.324;6.862;2022-09-28T04:50:37;6.00;99.90
52867;DHT22;38739;53.324;6.862;2022-09-28T04:53:03;6.00;99.90
52867;DHT22;38739;53.324;6.862;2022-09-28T04:55:28;6.00;99.90
52867;DHT22;38739;53.324;6.862;2022-09-28T04:58:00;5.90;99.90
52867;DHT22;38739;53.324;6.862;2022-09-28T05:00:29;5.90;99.90
52867;DHT22;38739;53.324;6.862;2022-09-28T05:02:58;5.90;99.90
52867;DHT22;38739;53.324;6.862;2022-09-28T05:05:23;5.90;99.90
52867;DHT22;38739;53.324;6.862;2022-09-28T05:07:49;5.90;99.90
52867;DHT22;38739;53.324;6.862;2022-09-28T05:10:15;5.90;99.90
52867;DHT22;38739;53.324;6.862;2022-09-28T05:12:43;5.90;99.90
52867;DHT22;38739;53.324;6.862;2022-09-28T05:15:09;5.90;99.90
52867;DHT22;38739;53.324;6.862;2022-09-28T05:17:34;5.90;99.90
52867;DHT22;38739;53.324;6.862;2022-09-28T05:20:00;5.80;99.90
52867;DHT22;38739;53.324;6.862;2022-09-28T05:22:27;5.70;99.90
52867;DHT22;38739;53.324;6.862;2022-09-28T05:24:53;5.70;99.90
52867;DHT22;38739;53.324;6.862;2022-09-28T05:27:20;5.70;99.90
52867;DHT22;38739;53.324;6.862;2022-09-28T05:29:45;5.70;99.90
52867;DHT22;38739;53.324;6.862;2022-09-28T05:32:11;5.70;99.90
52867;DHT22;38739;53.324;6.862;2022-09-28T05:34:37;5.70;99.90
52867;DHT22;38739;53.324;6.862;2022-09-28T05:37:02;5.70;99.90
52867;DHT22;38739;53.324;6.862;2022-09-28T05:39:28;5.60;99.90
52867;DHT22;38739;53.324;6.862;2022-09-28T05:41:54;5.70;99.90
52867;DHT22;38739;53.324;6.862;2022-09-28T05:44:22;5.70;99.90
52867;DHT22;38739;53.324;6.862;2022-09-28T05:46:49;5.70;99.90
52867;DHT22;38739;53.324;6.862;2022-09-28T05:49:15;5.70;99.90
52867;DHT22;38739;53.324;6.862;2022-09-28T05:51:41;5.70;99.90
52867;DHT22;38739;53.324;6.862;2022-09-28T05:54:07;5.70;99.90
52867;DHT22;38739;53.324;6.862;2022-09-28T05:56:33;5.70;99.90
52867;DHT22;38739;53.324;6.862;2022-09-28T05:58:59;5.70;99.90
52867;DHT22;38739;53.324;6.862;2022-09-28T06:01:24;5.70;99.90
52867;DHT22;38739;53.324;6.862;2022-09-28T06:03:50;5.60;99.90
52867;DHT22;38739;53.324;6.862;2022-09-28T06:06:16;5.60;99.90
52867;DHT22;38739;53.324;6.862;2022-09-28T06:08:41;5.60;99.90
52867;DHT22;38739;53.324;6.862;2022-09-28T06:11:08;5.60;99.90
52867;DHT22;38739;53.324;6.862;2022-09-28T06:13:37;5.60;99.90
52867;DHT22;38739;53.324;6.862;2022-09-28T06:16:05;5.60;99.90
52867;DHT22;38739;53.324;6.862;2022-09-28T06:18:32;5.60;99.90
52867;DHT22;38739;53.324;6.862;2022-09-28T06:20:58;5.60;99.90
52867;DHT22;38739;53.324;6.862;2022-09-28T06:23:24;5.60;99.90
52867;DHT22;38739;53.324;6.862;2022-09-28T06:25:49;5.60;99.90
52867;DHT22;38739;53.324;6.862;2022-09-28T06:28:15;5.60;99.90
52867;DHT22;38739;53.324;6.862;2022-09-28T06:30:42;5.60;99.90
52867;DHT22;38739;53.324;6.862;2022-09-28T06:33:10;5.60;99.90
52867;DHT22;38739;53.324;6.862;2022-09-28T06:35:37;5.60;99.90
52867;DHT22;38739;53.324;6.862;2022-09-28T06:38:02;5.70;99.90
52867;DHT22;38739;53.324;6.862;2022-09-28T06:40:29;5.70;99.90
52867;DHT22;38739;53.324;6.862;2022-09-28T06:43:00;5.70;99.90
52867;DHT22;38739;53.324;6.862;2022-09-28T06:45:27;5.70;99.90
52867;DHT22;38739;53.324;6.862;2022-09-28T06:47:58;5.70;99.90
52867;DHT22;38739;53.324;6.862;2022-09-28T06:50:26;5.70;99.90
52867;DHT22;38739;53.324;6.862;2022-09-28T06:52:59;5.80;99.90
52867;DHT22;38739;53.324;6.862;2022-09-28T06:55:24;5.80;99.90
52867;DHT22;38739;53.324;6.862;2022-09-28T06:57:56;5.90;99.90
52867;DHT22;38739;53.324;6.862;2022-09-28T07:00:24;5.90;99.90
52867;DHT22;38739;53.324;6.862;2022-09-28T07:02:49;5.90;99.90
52867;DHT22;38739;53.324;6.862;2022-09-28T07:05:15;5.90;99.90
52867;DHT22;38739;53.324;6.862;2022-09-28T07:07:41;6.00;99.90
52867;DHT22;38739;53.324;6.862;2022-09-28T07:10:12;6.00;99.90
52867;DHT22;38739;53.324;6.862;2022-09-28T07:12:37;6.00;99.90
52867;DHT22;38739;53.324;6.862;2022-09-28T07:15:05;6.10;99.90
52867;DHT22;38739;53.324;6.862;2022-09-28T07:17:32;6.10;99.90
52867;DHT22;38739;53.324;6.862;2022-09-28T07:19:59;6.20;99.90
52867;DHT22;38739;53.324;6.862;2022-09-28T07:22:25;6.20;99.90
52867;DHT22;38739;53.324;6.862;2022-09-28T07:24:50;6.30;99.90
52867;DHT22;38739;53.324;6.862;2022-09-28T07:27:16;6.30;99.90
52867;DHT22;38739;53.324;6.862;2022-09-28T07:29:42;6.40;99.90
52867;DHT22;38739;53.324;6.862;2022-09-28T07:32:08;6.40;99.90
52867;DHT22;38739;53.324;6.862;2022-09-28T07:34:34;6.60;99.90
52867;DHT22;38739;53.324;6.862;2022-09-28T07:37:11;6.70;99.90
52867;DHT22;38739;53.324;6.862;2022-09-28T07:39:37;6.80;99.90
52867;DHT22;38739;53.324;6.862;2022-09-28T07:42:22;6.90;99.90
52867;DHT22;38739;53.324;6.862;2022-09-28T07:44:48;7.10;99.90
52867;DHT22;38739;53.324;6.862;2022-09-28T07:47:13;7.10;99.90
52867;DHT22;38739;53.324;6.862;2022-09-28T07:49:39;7.20;99.90
52867;DHT22;38739;53.324;6.862;2022-09-28T07:52:05;7.20;99.90
52867;DHT22;38739;53.324;6.862;2022-09-28T07:54:30;7.30;99.90
52867;DHT22;38739;53.324;6.862;2022-09-28T07:56:56;7.30;99.90
52867;DHT22;38739;53.324;6.862;2022-09-28T07:59:22;7.40;99.90
52867;DHT22;38739;53.324;6.862;2022-09-28T08:01:49;7.40;99.90
52867;DHT22;38739;53.324;6.862;2022-09-28T08:04:15;7.50;99.90
52867;DHT22;38739;53.324;6.862;2022-09-28T08:06:41;7.60;99.90
52867;DHT22;38739;53.324;6.862;2022-09-28T08:09:08;7.70;99.90
52867;DHT22;38739;53.324;6.862;2022-09-28T08:11:33;7.80;99.90
52867;DHT22;38739;53.324;6.862;2022-09-28T08:13:59;7.90;99.90
52867;DHT22;38739;53.324;6.862;2022-09-28T08:16:26;8.10;99.90
52867;DHT22;38739;53.324;6.862;2022-09-28T08:18:52;8.20;99.90
52867;DHT22;38739;53.324;6.862;2022-09-28T08:21:20;8.30;99.90
52867;DHT22;38739;53.324;6.862;2022-09-28T08:24:05;8.40;99.90
52867;DHT22;38739;53.324;6.862;2022-09-28T08:26:31;8.50;99.90
52867;DHT22;38739;53.324;6.862;2022-09-28T08:28:56;8.70;99.90
52867;DHT22;38739;53.324;6.862;2022-09-28T08:31:22;8.80;99.90
52867;DHT22;38739;53.324;6.862;2022-09-28T08:33:48;8.90;99.90
52867;DHT22;38739;53.324;6.862;2022-09-28T08:36:19;9.10;99.90
52867;DHT22;38739;53.324;6.862;2022-09-28T08:38:48;9.20;99.90
52867;DHT22;38739;53.324;6.862;2022-09-28T08:44:18;9.30;99.90
52867;DHT22;38739;53.324;6.862;2022-09-28T08:46:57;9.40;99.90
52867;DHT22;38739;53.324;6.862;2022-09-28T08:49:37;9.40;99.90
52867;DHT22;38739;53.324;6.862;2022-09-28T08:52:15;9.50;99.90
52867;DHT22;38739;53.324;6.862;2022-09-28T08:55:12;9.70;99.90
52867;DHT22;38739;53.324;6.862;2022-09-28T08:57:48;9.90;99.90
52867;DHT22;38739;53.324;6.862;2022-09-28T09:00:19;10.10;99.90
52867;DHT22;38739;53.324;6.862;2022-09-28T09:02:45;10.20;99.90
52867;DHT22;38739;53.324;6.862;2022-09-28T09:05:15;10.30;99.90
52867;DHT22;38739;53.324;6.862;2022-09-28T09:08:54;10.50;99.90
52867;DHT22;38739;53.324;6.862;2022-09-28T09:14:15;10.90;99.90
52867;DHT22;38739;53.324;6.862;2022-09-28T09:19:52;11.50;99.90
52867;DHT22;38739;53.324;6.862;2022-09-28T09:22:39;11.80;99.90
52867;DHT22;38739;53.324;6.862;2022-09-28T09:30:33;13.60;99.90
52867;DHT22;38739;53.324;6.862;2022-09-28T09:36:31;14.10;99.90
52867;DHT22;38739;53.324;6.862;2022-09-28T09:42:00;15.10;99.90
52867;DHT22;38739;53.324;6.862;2022-09-28T09:47:38;16.40;99.90
52867;DHT22;38739;53.324;6.862;2022-09-28T09:50:20;17.10;99.90
52867;DHT22;38739;53.324;6.862;2022-09-28T09:55:45;18.10;99.90
52867;DHT22;38739;53.324;6.862;2022-09-28T09:58:41;18.40;99.90
52867;DHT22;38739;53.324;6.862;2022-09-28T10:01:14;19.00;99.90
52867;DHT22;38739;53.324;6.862;2022-09-28T10:03:44;19.50;99.90
52867;DHT22;38739;53.324;6.862;2022-09-28T10:06:18;19.50;99.90
52867;DHT22;38739;53.324;6.862;2022-09-28T10:08:51;19.80;99.90
52867;DHT22;38739;53.324;6.862;2022-09-28T10:11:25;20.00;99.90
52867;DHT22;38739;53.324;6.862;2022-09-28T10:13:52;19.80;99.90
52867;DHT22;38739;53.324;6.862;2022-09-28T10:16:18;19.70;99.90
52867;DHT22;38739;53.324;6.862;2022-09-28T10:18:44;19.70;99.90
52867;DHT22;38739;53.324;6.862;2022-09-28T10:21:12;19.80;99.90
52867;DHT22;38739;53.324;6.862;2022-09-28T10:23:38;20.00;99.90
52867;DHT22;38739;53.324;6.862;2022-09-28T10:26:21;20.30;99.90
52867;DHT22;38739;53.324;6.862;2022-09-28T10:28:59;20.70;99.90
52867;DHT22;38739;53.324;6.862;2022-09-28T10:31:38;20.80;99.90
52867;DHT22;38739;53.324;6.862;2022-09-28T10:34:05;20.90;99.90
52867;DHT22;38739;53.324;6.862;2022-09-28T10:36:41;20.60;99.90
52867;DHT22;38739;53.324;6.862;2022-09-28T10:39:31;20.70;99.90
52867;DHT22;38739;53.324;6.862;2022-09-28T10:41:59;21.10;99.90
52867;DHT22;38739;53.324;6.862;2022-09-28T10:44:34;21.80;99.90
52867;DHT22;38739;53.324;6.862;2022-09-28T10:47:05;22.10;99.90
52867;DHT22;38739;53.324;6.862;2022-09-28T10:49:39;22.50;99.90
52867;DHT22;38739;53.324;6.862;2022-09-28T10:52:38;22.60;99.90
52867;DHT22;38739;53.324;6.862;2022-09-28T10:55:31;22.10;99.90
52867;DHT22;38739;53.324;6.862;2022-09-28T10:57:58;21.80;99.90
52867;DHT22;38739;53.324;6.862;2022-09-28T11:00:38;22.00;99.90
52867;DHT22;38739;53.324;6.862;2022-09-28T11:03:04;22.60;99.90
52867;DHT22;38739;53.324;6.862;2022-09-28T11:05:31;23.10;99.90
52867;DHT22;38739;53.324;6.862;2022-09-28T11:07:59;23.60;99.50
52867;DHT22;38739;53.324;6.862;2022-09-28T11:10:29;23.40;99.20
52867;DHT22;38739;53.324;6.862;2022-09-28T11:12:57;23.90;99.60
52867;DHT22;38739;53.324;6.862;2022-09-28T11:15:29;24.30;98.90
52867;DHT22;38739;53.324;6.862;2022-09-28T11:17:55;24.60;95.50
52867;DHT22;38739;53.324;6.862;2022-09-28T11:20:41;24.80;94.80
52867;DHT22;38739;53.324;6.862;2022-09-28T11:25:32;25.30;93.00
52867;DHT22;38739;53.324;6.862;2022-09-28T11:28:00;26.10;92.10
52867;DHT22;38739;53.324;6.862;2022-09-28T11:33:08;27.10;88.90
52867;DHT22;38739;53.324;6.862;2022-09-28T11:35:55;27.50;82.70
52867;DHT22;38739;53.324;6.862;2022-09-28T11:44:09;28.20;81.70
52867;DHT22;38739;53.324;6.862;2022-09-28T11:52:02;26.20;78.00
52867;DHT22;38739;53.324;6.862;2022-09-28T11:57:25;26.80;80.60
52867;DHT22;38739;53.324;6.862;2022-09-28T11:59:58;27.60;76.40
52867;DHT22;38739;53.324;6.862;2022-09-28T12:05:25;28.40;75.10
52867;DHT22;38739;53.324;6.862;2022-09-28T12:08:14;27.60;72.80
52867;DHT22;38739;53.324;6.862;2022-09-28T12:10:53;26.90;77.30
52867;DHT22;38739;53.324;6.862;2022-09-28T12:13:27;25.60;79.50
52867;DHT22;38739;53.324;6.862;2022-09-28T12:23:44;20.80;91.20
52867;DHT22;38739;53.324;6.862;2022-09-28T12:28:53;19.20;96.70
52867;DHT22;38739;53.324;6.862;2022-09-28T12:34:44;18.00;99.90
52867;DHT22;38739;53.324;6.862;2022-09-28T12:37:34;17.50;99.90
52867;DHT22;38739;53.324;6.862;2022-09-28T12:43:04;16.80;99.90
52867;DHT22;38739;53.324;6.862;2022-09-28T12:57:01;15.70;99.90
52867;DHT22;38739;53.324;6.862;2022-09-28T12:59:32;15.50;99.90
52867;DHT22;38739;53.324;6.862;2022-09-28T13:02:21;15.60;99.90
52867;DHT22;38739;53.324;6.862;2022-09-28T13:18:40;19.00;99.90
52867;DHT22;38739;53.324;6.862;2022-09-28T13:21:55;19.50;99.90
52867;DHT22;38739;53.324;6.862;2022-09-28T13:24:01;19.10;99.90
52867;DHT22;38739;53.324;6.862;2022-09-28T13:26:35;18.50;99.90
52867;DHT22;38739;53.324;6.862;2022-09-28T13:29:08;17.90;99.90
52867;DHT22;38739;53.324;6.862;2022-09-28T13:31:49;17.60;99.90
52867;DHT22;38739;53.324;6.862;2022-09-28T13:34:23;17.80;99.90
52867;DHT22;38739;53.324;6.862;2022-09-28T13:39:58;20.50;99.90
52867;DHT22;38739;53.324;6.862;2022-09-28T13:47:54;24.60;92.20
52867;DHT22;38739;53.324;6.862;2022-09-28T13:53:15;26.00;86.60
52867;DHT22;38739;53.324;6.862;2022-09-28T13:56:34;26.30;84.20
52867;DHT22;38739;53.324;6.862;2022-09-28T14:01:43;25.30;81.90
52867;DHT22;38739;53.324;6.862;2022-09-28T14:04:23;24.50;78.10
52867;DHT22;38739;53.324;6.862;2022-09-28T14:07:08;24.30;84.40
52867;DHT22;38739;53.324;6.862;2022-09-28T14:18:01;23.60;81.70
52867;DHT22;38739;53.324;6.862;2022-09-28T14:20:33;23.20;80.50
52867;DHT22;38739;53.324;6.862;2022-09-28T14:25:57;22.30;83.40
52867;DHT22;38739;53.324;6.862;2022-09-28T14:31:25;21.90;85.30
52867;DHT22;38739;53.324;6.862;2022-09-28T14:34:01;22.10;85.00
52867;DHT22;38739;53.324;6.862;2022-09-28T14:36:38;22.40;84.20
52867;DHT22;38739;53.324;6.862;2022-09-28T14:39:32;22.40;86.70
52867;DHT22;38739;53.324;6.862;2022-09-28T14:42:31;22.70;86.60
52867;DHT22;38739;53.324;6.862;2022-09-28T14:47:39;23.90;81.00
52867;DHT22;38739;53.324;6.862;2022-09-28T14:50:24;23.20;81.40
52867;DHT22;38739;53.324;6.862;2022-09-28T14:52:52;21.90;84.10
52867;DHT22;38739;53.324;6.862;2022-09-28T14:55:25;20.90;87.20
52867;DHT22;38739;53.324;6.862;2022-09-28T14:57:55;19.90;90.00
52867;DHT22;38739;53.324;6.862;2022-09-28T15:00:23;19.00;91.90
52867;DHT22;38739;53.324;6.862;2022-09-28T15:02:51;18.40;94.90
52867;DHT22;38739;53.324;6.862;2022-09-28T15:05:31;17.80;96.50
52867;DHT22;38739;53.324;6.862;2022-09-28T15:07:57;17.20;96.50
52867;DHT22;38739;53.324;6.862;2022-09-28T15:10:33;16.80;98.40
52867;DHT22;38739;53.324;6.862;2022-09-28T15:13:02;16.40;99.90
52867;DHT22;38739;53.324;6.862;2022-09-28T15:15:39;16.10;99.90
52867;DHT22;38739;53.324;6.862;2022-09-28T15:20:49;15.50;99.90
52867;DHT22;38739;53.324;6.862;2022-09-28T15:23:25;15.30;99.90
52867;DHT22;38739;53.324;6.862;2022-09-28T15:25:53;15.00;99.90
52867;DHT22;38739;53.324;6.862;2022-09-28T15:28:21;14.80;99.90
52867;DHT22;38739;53.324;6.862;2022-09-28T15:30:47;14.70;99.90
52867;DHT22;38739;53.324;6.862;2022-09-28T15:33:42;14.50;99.90
52867;DHT22;38739;53.324;6.862;2022-09-28T15:36:29;14.30;99.90
52867;DHT22;38739;53.324;6.862;2022-09-28T15:39:32;14.10;99.90
52867;DHT22;38739;53.324;6.862;2022-09-28T15:41:51;14.00;99.90
52867;DHT22;38739;53.324;6.862;2022-09-28T15:44:29;13.80;99.90
52867;DHT22;38739;53.324;6.862;2022-09-28T15:47:14;13.60;99.90
52867;DHT22;38739;53.324;6.862;2022-09-28T15:50:05;13.50;99.90
52867;DHT22;38739;53.324;6.862;2022-09-28T15:52:36;13.40;99.90
52867;DHT22;38739;53.324;6.862;2022-09-28T15:55:22;13.30;99.90
52867;DHT22;38739;53.324;6.862;2022-09-28T15:57:49;13.20;99.90
52867;DHT22;38739;53.324;6.862;2022-09-28T16:05:31;13.10;99.90
52867;DHT22;38739;53.324;6.862;2022-09-28T16:08:04;13.00;99.90
52867;DHT22;38739;53.324;6.862;2022-09-28T16:10:31;12.90;99.90
52867;DHT22;38739;53.324;6.862;2022-09-28T16:13:12;12.80;99.90
52867;DHT22;38739;53.324;6.862;2022-09-28T16:15:38;12.70;99.90
52867;DHT22;38739;53.324;6.862;2022-09-28T16:20:44;12.60;99.90
52867;DHT22;38739;53.324;6.862;2022-09-28T16:23:19;12.50;99.90
52867;DHT22;38739;53.324;6.862;2022-09-28T16:26:14;12.40;99.90
52867;DHT22;38739;53.324;6.862;2022-09-28T16:36:40;12.00;99.90
52867;DHT22;38739;53.324;6.862;2022-09-28T16:39:08;12.00;99.90
52867;DHT22;38739;53.324;6.862;2022-09-28T16:41:36;11.90;99.90
52867;DHT22;38739;53.324;6.862;2022-09-28T16:44:04;11.80;99.90
52867;DHT22;38739;53.324;6.862;2022-09-28T16:46:37;11.70;99.90
52867;DHT22;38739;53.324;6.862;2022-09-28T16:49:05;11.60;99.90
52867;DHT22;38739;53.324;6.862;2022-09-28T16:51:31;11.50;99.90
52867;DHT22;38739;53.324;6.862;2022-09-28T16:54:22;11.50;99.90
52867;DHT22;38739;53.324;6.862;2022-09-28T16:57:11;11.30;99.90
52867;DHT22;38739;53.324;6.862;2022-09-28T16:59:37;11.20;99.90
52867;DHT22;38739;53.324;6.862;2022-09-28T17:02:20;11.10;99.90
52867;DHT22;38739;53.324;6.862;2022-09-28T17:04:50;11.10;99.90
52867;DHT22;38739;53.324;6.862;2022-09-28T17:07:16;11.00;99.90
52867;DHT22;38739;53.324;6.862;2022-09-28T17:09:44;10.90;99.90
52867;DHT22;38739;53.324;6.862;2022-09-28T17:12:20;10.80;99.90
52867;DHT22;38739;53.324;6.862;2022-09-28T17:14:49;10.80;99.90
52867;DHT22;38739;53.324;6.862;2022-09-28T17:17:14;10.60;99.90
52867;DHT22;38739;53.324;6.862;2022-09-28T17:19:40;10.60;99.90
52867;DHT22;38739;53.324;6.862;2022-09-28T17:22:09;10.50;99.90
52867;DHT22;38739;53.324;6.862;2022-09-28T17:24:35;10.40;99.90
52867;DHT22;38739;53.324;6.862;2022-09-28T17:27:01;10.40;99.90
52867;DHT22;38739;53.324;6.862;2022-09-28T17:29:28;10.30;99.90
52867;DHT22;38739;53.324;6.862;2022-09-28T17:31:54;10.30;99.90
52867;DHT22;38739;53.324;6.862;2022-09-28T17:34:20;10.20;99.90
52867;DHT22;38739;53.324;6.862;2022-09-28T17:36:46;10.10;99.90
52867;DHT22;38739;53.324;6.862;2022-09-28T17:39:14;10.10;99.90
52867;DHT22;38739;53.324;6.862;2022-09-28T17:41:40;10.00;99.90
52867;DHT22;38739;53.324;6.862;2022-09-28T17:44:06;9.90;99.90
52867;DHT22;38739;53.324;6.862;2022-09-28T17:46:35;9.90;99.90
52867;DHT22;38739;53.324;6.862;2022-09-28T17:49:04;9.80;99.90
52867;DHT22;38739;53.324;6.862;2022-09-28T17:51:33;9.80;99.90
52867;DHT22;38739;53.324;6.862;2022-09-28T17:53:59;9.70;99.90
52867;DHT22;38739;53.324;6.862;2022-09-28T17:56:26;9.70;99.90
52867;DHT22;38739;53.324;6.862;2022-09-28T17:58:53;9.60;99.90
52867;DHT22;38739;53.324;6.862;2022-09-28T18:01:19;9.60;99.90
52867;DHT22;38739;53.324;6.862;2022-09-28T18:03:45;9.50;99.90
52867;DHT22;38739;53.324;6.862;2022-09-28T18:06:16;9.40;99.90
52867;DHT22;38739;53.324;6.862;2022-09-28T18:08:44;9.40;99.90
52867;DHT22;38739;53.324;6.862;2022-09-28T18:11:11;9.40;99.90
52867;DHT22;38739;53.324;6.862;2022-09-28T18:13:37;9.40;99.90
52867;DHT22;38739;53.324;6.862;2022-09-28T18:16:03;9.30;99.90
52867;DHT22;38739;53.324;6.862;2022-09-28T18:18:29;9.20;99.90
52867;DHT22;38739;53.324;6.862;2022-09-28T18:20:55;9.20;99.90
52867;DHT22;38739;53.324;6.862;2022-09-28T18:23:21;9.20;99.90
52867;DHT22;38739;53.324;6.862;2022-09-28T18:25:47;9.20;99.90
52867;DHT22;38739;53.324;6.862;2022-09-28T18:28:13;9.10;99.90
52867;DHT22;38739;53.324;6.862;2022-09-28T18:30:41;9.10;99.90
52867;DHT22;38739;53.324;6.862;2022-09-28T18:33:08;9.10;99.90
52867;DHT22;38739;53.324;6.862;2022-09-28T18:35:34;9.00;99.90
52867;DHT22;38739;53.324;6.862;2022-09-28T18:38:02;9.00;99.90
52867;DHT22;38739;53.324;6.862;2022-09-28T18:40:30;8.90;99.90
52867;DHT22;38739;53.324;6.862;2022-09-28T18:42:56;8.90;99.90
52867;DHT22;38739;53.324;6.862;2022-09-28T18:45:22;8.80;99.90
52867;DHT22;38739;53.324;6.862;2022-09-28T18:47:48;8.80;99.90
52867;DHT22;38739;53.324;6.862;2022-09-28T18:50:14;8.80;99.90
52867;DHT22;38739;53.324;6.862;2022-09-28T18:52:43;8.80;99.90
52867;DHT22;38739;53.324;6.862;2022-09-28T18:55:10;8.80;99.90
52867;DHT22;38739;53.324;6.862;2022-09-28T18:57:37;8.70;99.90
52867;DHT22;38739;53.324;6.862;2022-09-28T19:00:07;8.70;99.90